Time;durP1;ratioP1;P1;durP2;ratioP2;P2;SDS_P1;SDS_P2;PMS_P1;PMS_P2;Temp;Humidity;BMP_temperature;BMP_pressure;BME280_temperature;BME280_humidity;BME280_pressure;Samples;Min_cycle;Max_cycle;Signal;HPM_P1;HPM_P2
2021/04/01 00:01:53;;;;;;;119.63;72.80;;;;;;;;;;5034243;28;20172;-82
2021/04/01 00:04:18;;;;;;;119.77;72.33;;;;;;;;;;5033893;28;20173;-82
2021/04/01 00:06:44;;;;;;;122.47;74.00;;;;;;;;;;5033430;28;20187;-82
2021/04/01 00:09:10;;;;;;;118.00;73.63;;;;;;;;;;5033845;28;20523;-82
2021/04/01 00:11:35;;;;;;;121.93;74.80;;;;;;;;;;5033828;28;20188;-82
2021/04/01 00:14:03;;;;;;;123.60;72.03;;;;;;;;;;5033800;28;20180;-82
2021/04/01 00:16:29;;;;;;;119.17;72.20;;;;;;;;;;5033476;28;20168;-82
2021/04/01 00:18:54;;;;;;;120.63;73.13;;;;;;;;;;5032374;28;20614;-82
2021/04/01 00:21:19;;;;;;;114.97;69.87;;;;;;;;;;5033707;28;20227;-82
2021/04/01 00:23:45;;;;;;;117.10;71.53;;;;;;;;;;5033684;28;20223;-82
2021/04/01 00:26:10;;;;;;;116.70;73.10;;;;;;;;;;5033888;28;20176;-82
2021/04/01 00:28:35;;;;;;;114.07;69.40;;;;;;;;;;5032958;28;20170;-82
2021/04/01 00:31:01;;;;;;;107.77;64.97;;;;;;;;;;5033475;28;20255;-83
2021/04/01 00:33:27;;;;;;;96.40;59.80;;;;;;;;;;5033552;28;20263;-82
2021/04/01 00:35:52;;;;;;;82.40;53.23;;;;;;;;;;5033803;28;20550;-82
2021/04/01 00:38:17;;;;;;;82.47;53.57;;;;;;;;;;5033893;28;20176;-82
2021/04/01 00:40:43;;;;;;;75.77;49.77;;;;;;;;;;5033535;28;20179;-82
2021/04/01 00:43:08;;;;;;;73.77;48.60;;;;;;;;;;5033500;28;20204;-82
2021/04/01 00:45:33;;;;;;;69.30;46.07;;;;;;;;;;5034089;28;20172;-82
2021/04/01 00:47:58;;;;;;;67.30;45.97;;;;;;;;;;5033492;28;20511;-83
2021/04/01 00:50:29;;;;;;;66.23;46.33;;;;;;;;;;5032724;28;20326;-83
2021/04/01 00:52:54;;;;;;;60.00;44.13;;;;;;;;;;5033338;28;20259;-83
2021/04/01 00:55:19;;;;;;;62.03;44.57;;;;;;;;;;5033755;28;20264;-82
2021/04/01 00:57:46;;;;;;;58.07;42.47;;;;;;;;;;5033416;28;20230;-82
2021/04/01 01:00:13;;;;;;;60.70;42.03;;;;;;;;;;5033209;28;20203;-82
2021/04/01 01:02:39;;;;;;;63.77;43.10;;;;;;;;;;5034120;28;20562;-82
2021/04/01 01:05:06;;;;;;;67.10;45.90;;;;;;;;;;5033656;28;20259;-82
2021/04/01 01:07:31;;;;;;;68.67;45.50;;;;;;;;;;5033453;28;20239;-82
2021/04/01 01:09:56;;;;;;;70.33;44.97;;;;;;;;;;5033604;28;20283;-82
2021/04/01 01:12:22;;;;;;;68.33;45.20;;;;;;;;;;5033546;28;20220;-82
2021/04/01 01:14:47;;;;;;;70.40;45.67;;;;;;;;;;5033221;28;20173;-83
2021/04/01 01:17:16;;;;;;;65.07;44.63;;;;;;;;;;5032914;28;20168;-82
2021/04/01 01:19:46;;;;;;;68.77;43.67;;;;;;;;;;5033402;28;20176;-82
2021/04/01 01:22:11;;;;;;;67.70;44.20;;;;;;;;;;5033211;28;20179;-82
2021/04/01 01:24:36;;;;;;;72.00;44.23;;;;;;;;;;5033413;28;20165;-82
2021/04/01 01:27:02;;;;;;;66.03;44.27;;;;;;;;;;5033157;28;20169;-82
2021/04/01 01:29:28;;;;;;;70.67;45.03;;;;;;;;;;5032825;28;20531;-82
2021/04/01 01:31:53;;;;;;;74.30;46.60;;;;;;;;;;5032637;28;20180;-82
2021/04/01 01:34:19;;;;;;;71.07;45.43;;;;;;;;;;5032894;28;20169;-82
2021/04/01 01:36:44;;;;;;;69.77;45.27;;;;;;;;;;5031951;28;20173;-82
2021/04/01 01:39:10;;;;;;;68.77;45.70;;;;;;;;;;5032997;28;20179;-82
2021/04/01 01:41:35;;;;;;;74.17;46.33;;;;;;;;;;5036547;28;20172;-82
2021/04/01 01:44:01;;;;;;;68.30;46.23;;;;;;;;;;5036288;28;20175;-82
2021/04/01 01:46:26;;;;;;;69.27;45.83;;;;;;;;;;5036243;28;20169;-82
2021/04/01 01:48:51;;;;;;;74.67;47.17;;;;;;;;;;5036561;28;20172;-82
2021/04/01 01:51:17;;;;;;;67.03;45.47;;;;;;;;;;5036382;28;20261;-82
2021/04/01 01:53:42;;;;;;;67.67;45.37;;;;;;;;;;5036444;28;20173;-82
2021/04/01 01:56:07;;;;;;;71.97;44.93;;;;;;;;;;5036522;28;20165;-82
2021/04/01 01:58:33;;;;;;;66.23;45.03;;;;;;;;;;5036862;28;20168;-82
2021/04/01 02:01:00;;;;;;;75.83;46.83;;;;;;;;;;5036037;28;20181;-82
2021/04/01 02:03:26;;;;;;;77.10;49.40;;;;;;;;;;5036385;28;20255;-82
2021/04/01 02:05:51;;;;;;;81.83;49.83;;;;;;;;;;5036456;28;20196;-82
2021/04/01 02:08:17;;;;;;;81.97;51.03;;;;;;;;;;5035903;28;20227;-82
2021/04/01 02:10:43;;;;;;;76.40;47.97;;;;;;;;;;5035917;28;20204;-82
2021/04/01 02:13:09;;;;;;;80.50;51.53;;;;;;;;;;5036111;28;20698;-82
2021/04/01 02:15:36;;;;;;;80.30;50.00;;;;;;;;;;5036011;28;20164;-82
2021/04/01 02:18:05;;;;;;;71.87;46.90;;;;;;;;;;5036178;28;20172;-81
2021/04/01 02:20:38;;;;;;;70.73;47.20;;;;;;;;;;5036702;28;20203;-81
2021/04/01 02:23:03;;;;;;;59.13;43.20;;;;;;;;;;5036408;28;20673;-82
2021/04/01 02:25:28;;;;;;;65.53;44.13;;;;;;;;;;5036092;28;20207;-82
2021/04/01 02:27:54;;;;;;;62.70;41.87;;;;;;;;;;5035787;28;20169;-82
2021/04/01 02:30:19;;;;;;;61.53;41.77;;;;;;;;;;5035890;28;20200;-81
2021/04/01 02:32:45;;;;;;;63.47;41.50;;;;;;;;;;5036493;28;20208;-81
2021/04/01 02:35:10;;;;;;;56.37;40.93;;;;;;;;;;5035636;28;20176;-81
2021/04/01 02:37:35;;;;;;;64.73;41.90;;;;;;;;;;5036124;28;20176;-81
2021/04/01 02:40:01;;;;;;;59.83;41.43;;;;;;;;;;5035551;28;20566;-82
2021/04/01 02:42:26;;;;;;;60.43;41.57;;;;;;;;;;5035290;28;20172;-82
2021/04/01 02:44:51;;;;;;;57.30;41.03;;;;;;;;;;5035209;28;20168;-82
2021/04/01 02:47:16;;;;;;;59.17;40.43;;;;;;;;;;5035656;28;20172;-82
2021/04/01 02:49:42;;;;;;;60.17;40.50;;;;;;;;;;5035722;28;20204;-82
2021/04/01 02:52:07;;;;;;;61.30;40.63;;;;;;;;;;5034806;28;20180;-82
2021/04/01 02:54:32;;;;;;;59.03;42.07;;;;;;;;;;5035341;28;20169;-82
2021/04/01 02:56:58;;;;;;;70.10;46.80;;;;;;;;;;5035643;28;20330;-82
2021/04/01 02:59:23;;;;;;;86.53;53.87;;;;;;;;;;5034848;28;20224;-82
2021/04/01 03:01:48;;;;;;;72.10;47.23;;;;;;;;;;5034893;28;20268;-82
2021/04/01 03:04:14;;;;;;;65.97;46.00;;;;;;;;;;5035175;28;20200;-82
2021/04/01 03:06:39;;;;;;;72.27;45.50;;;;;;;;;;5034579;28;20173;-82
2021/04/01 03:09:05;;;;;;;71.17;46.50;;;;;;;;;;5035001;28;20199;-82
2021/04/01 03:11:30;;;;;;;74.67;48.73;;;;;;;;;;5034853;28;20204;-81
2021/04/01 03:13:57;;;;;;;74.73;46.47;;;;;;;;;;5034876;28;20198;-82
2021/04/01 03:16:22;;;;;;;78.50;47.10;;;;;;;;;;5034878;28;20631;-82
2021/04/01 03:18:48;;;;;;;68.83;46.93;;;;;;;;;;5034798;28;20168;-82
2021/04/01 03:21:13;;;;;;;66.43;43.93;;;;;;;;;;5034815;28;20204;-82
2021/04/01 03:23:38;;;;;;;57.80;41.60;;;;;;;;;;5034481;28;20200;-82
2021/04/01 03:26:03;;;;;;;59.17;41.70;;;;;;;;;;5034716;28;20594;-82
2021/04/01 03:28:29;;;;;;;61.60;41.33;;;;;;;;;;5034368;28;20239;-82
2021/04/01 03:33:23;;;;;;;55.70;39.57;;;;;;;;;;5034561;28;20181;-82
2021/04/01 03:35:48;;;;;;;59.27;42.53;;;;;;;;;;5034202;28;20207;-82
2021/04/01 03:38:15;;;;;;;57.57;41.73;;;;;;;;;;5034474;28;20175;-82
2021/04/01 03:40:40;;;;;;;63.10;41.67;;;;;;;;;;5034678;28;20172;-82
2021/04/01 03:43:06;;;;;;;62.90;41.63;;;;;;;;;;5034305;28;20173;-82
2021/04/01 03:45:31;;;;;;;53.20;39.97;;;;;;;;;;5034573;28;20169;-82
2021/04/01 03:47:56;;;;;;;56.67;40.50;;;;;;;;;;5034348;28;20303;-82
2021/04/01 03:50:22;;;;;;;56.17;40.77;;;;;;;;;;5033961;28;20196;-82
2021/04/01 03:52:47;;;;;;;58.97;40.63;;;;;;;;;;5034448;28;20181;-81
2021/04/01 04:06:32;;;;;;;57.47;40.50;;;;;;;;;;5033770;28;20172;-82
2021/04/01 04:14:15;;;;;;;60.03;39.07;;;;;;;;;;5033855;28;20555;-82
2021/04/01 04:16:41;;;;;;;57.57;40.07;;;;;;;;;;5033969;28;20615;-82
2021/04/01 04:19:07;;;;;;;61.07;39.73;;;;;;;;;;5033505;28;20173;-82
2021/04/01 04:21:32;;;;;;;64.47;39.93;;;;;;;;;;5033435;28;20620;-82
2021/04/01 04:23:58;;;;;;;57.17;41.20;;;;;;;;;;5034294;28;20179;-82
2021/04/01 04:26:24;;;;;;;60.50;41.57;;;;;;;;;;5033831;28;20176;-82
2021/04/01 04:28:49;;;;;;;55.37;39.63;;;;;;;;;;5033657;28;20531;-82
2021/04/01 04:31:15;;;;;;;64.30;42.47;;;;;;;;;;5033982;28;20223;-82
2021/04/01 04:33:40;;;;;;;60.90;41.33;;;;;;;;;;5034254;28;20168;-82
2021/04/01 04:36:06;;;;;;;59.57;41.87;;;;;;;;;;5034769;28;20168;-82
2021/04/01 04:38:31;;;;;;;60.37;40.10;;;;;;;;;;5033837;28;20531;-82
2021/04/01 04:40:57;;;;;;;53.13;40.10;;;;;;;;;;5033556;28;20206;-82
2021/04/01 04:43:23;;;;;;;54.63;40.60;;;;;;;;;;5033562;28;20530;-82
2021/04/01 04:45:49;;;;;;;66.73;43.07;;;;;;;;;;5033526;28;20695;-82
2021/04/01 04:48:14;;;;;;;61.50;43.10;;;;;;;;;;5034442;28;20203;-82
2021/04/01 04:50:39;;;;;;;65.00;44.20;;;;;;;;;;5033467;28;20669;-82
2021/04/01 04:53:05;;;;;;;60.93;43.60;;;;;;;;;;5033474;28;20226;-82
2021/04/01 04:55:30;;;;;;;58.63;41.43;;;;;;;;;;5033746;28;20263;-82
2021/04/01 05:05:35;;;;;;;71.40;44.87;;;;;;;;;;5033479;28;20243;-82
2021/04/01 05:08:01;;;;;;;71.50;46.23;;;;;;;;;;5033419;28;20267;-82
2021/04/01 05:10:26;;;;;;;68.33;45.27;;;;;;;;;;5033214;28;20323;-82
2021/04/01 05:15:32;;;;;;;60.77;42.60;;;;;;;;;;5036028;28;20165;-82
2021/04/01 05:18:13;;;;;;;68.57;46.10;;;;;;;;;;5037223;28;20539;-82
2021/04/01 05:20:38;;;;;;;97.63;61.83;;;;;;;;;;5037409;28;20157;-82
2021/04/01 05:23:09;;;;;;;157.43;103.07;;;;;;;;;;5037640;28;20518;-82
2021/04/01 05:25:34;;;;;;;160.87;103.80;;;;;;;;;;5037359;28;20241;-82
2021/04/01 05:28:19;;;;;;;213.83;129.93;;;;;;;;;;5037869;28;20575;-82
2021/04/01 05:30:44;;;;;;;184.10;118.53;;;;;;;;;;5037697;28;20273;-82
2021/04/01 05:33:10;;;;;;;175.73;113.03;;;;;;;;;;5037665;28;20169;-82
2021/04/01 05:35:36;;;;;;;171.73;111.33;;;;;;;;;;5037160;28;20177;-82
2021/04/01 05:38:01;;;;;;;165.18;105.80;;;;;;;;;;5037521;28;20627;-82
2021/04/01 05:40:26;;;;;;;143.82;92.80;;;;;;;;;;5037244;28;20196;-82
2021/04/01 05:42:52;;;;;;;115.68;77.03;;;;;;;;;;5036947;28;20172;-82
2021/04/01 05:47:51;;;;;;;111.45;74.65;;;;;;;;;;5036889;28;20181;-83
2021/04/01 05:53:48;;;;;;;99.22;70.55;;;;;;;;;;5037111;28;20171;-83
2021/04/01 06:06:33;;;;;;;69.65;56.67;;;;;;;;;;5036199;28;20180;-83
2021/04/01 06:09:03;;;;;;;64.50;55.75;;;;;;;;;;5037047;28;20227;-83
2021/04/01 06:11:28;;;;;;;65.32;52.13;;;;;;;;;;5036884;28;20202;-83
2021/04/01 06:14:14;;;;;;;58.65;49.30;;;;;;;;;;5051778;28;20540;-84
2021/04/01 06:16:41;;;;;;;57.05;47.67;;;;;;;;;;5036186;28;20176;-84
2021/04/01 06:19:09;;;;;;;55.00;49.05;;;;;;;;;;5036328;28;20176;-83
2021/04/01 06:21:39;;;;;;;53.90;47.95;;;;;;;;;;5036716;28;20223;-83
2021/04/01 06:24:14;;;;;;;51.78;46.17;;;;;;;;;;5037127;28;20234;-83
2021/04/01 06:26:43;;;;;;;54.00;48.20;;;;;;;;;;5035211;28;20243;-83
2021/04/01 06:29:08;;;;;;;58.10;49.83;;;;;;;;;;5036459;28;20168;-83
2021/04/01 06:31:42;;;;;;;54.83;49.08;;;;;;;;;;5035713;28;20647;-83
2021/04/01 06:34:08;;;;;;;54.78;49.08;;;;;;;;;;5035749;28;20175;-83
2021/04/01 06:36:35;;;;;;;54.22;48.55;;;;;;;;;;5035684;28;20180;-83
2021/04/01 06:39:01;;;;;;;53.70;48.10;;;;;;;;;;5035523;28;20188;-83
2021/04/01 06:41:28;;;;;;;44.72;39.95;;;;;;;;;;5050023;28;20294;-82
2021/04/01 06:44:05;;;;;;;40.75;36.58;;;;;;;;;;5055529;28;20213;-83
2021/04/01 06:46:42;;;;;;;36.78;33.08;;;;;;;;;;5055103;28;20183;-82
2021/04/01 06:52:09;;;;;;;34.67;31.30;;;;;;;;;;5055860;28;20274;-82
2021/04/01 07:03:25;;;;;;;26.63;23.80;;;;;;;;;;5055347;28;20255;-83
2021/04/01 07:05:55;;;;;;;25.75;23.15;;;;;;;;;;5054419;28;20180;-83
2021/04/01 07:08:39;;;;;;;25.13;22.38;;;;;;;;;;5055205;28;20226;-83
2021/04/01 07:11:12;;;;;;;23.80;21.35;;;;;;;;;;5054921;28;20199;-83
2021/04/01 07:13:43;;;;;;;22.88;20.48;;;;;;;;;;5055677;28;20160;-83
2021/04/01 07:16:12;;;;;;;22.65;20.42;;;;;;;;;;5055003;28;20251;-83
2021/04/01 07:19:16;;;;;;;22.42;20.02;;;;;;;;;;5053174;28;20203;-83
2021/04/01 07:48:21;;;;;;;20.23;18.05;;;;;;;;;;5052657;28;20539;-83
2021/04/01 07:50:46;;;;;;;23.17;18.58;;;;;;;;;;5051158;28;20203;-83
2021/04/01 07:53:13;;;;;;;20.27;18.17;;;;;;;;;;5052158;28;20645;-83
2021/04/01 08:06:27;;;;;;;20.00;17.73;;;;;;;;;;5052445;28;20206;-83
2021/04/01 08:08:58;;;;;;;19.80;17.23;;;;;;;;;;5051839;28;20234;-83
2021/04/01 08:11:26;;;;;;;23.45;19.05;;;;;;;;;;5051714;28;20625;-84
2021/04/01 08:13:58;;;;;;;23.02;18.90;;;;;;;;;;5052047;28;20203;-84
2021/04/01 08:16:24;;;;;;;22.92;18.83;;;;;;;;;;5052217;28;20152;-84
2021/04/01 08:18:52;;;;;;;24.85;19.50;;;;;;;;;;5053476;28;20574;-83
2021/04/01 08:21:17;;;;;;;26.02;19.02;;;;;;;;;;5054463;28;20488;-83
2021/04/01 08:23:51;;;;;;;25.45;19.15;;;;;;;;;;5054193;28;20175;-83
2021/04/01 08:29:21;;;;;;;24.75;21.08;;;;;;;;;;5060393;28;20172;-82
2021/04/01 08:34:38;;;;;;;27.17;20.55;;;;;;;;;;5065106;28;20184;-83
2021/04/01 08:37:06;;;;;;;24.10;20.35;;;;;;;;;;5044737;28;20179;-83
2021/04/01 08:39:33;;;;;;;24.98;20.60;;;;;;;;;;5032179;28;20180;-84
2021/04/01 08:42:08;;;;;;;23.83;19.83;;;;;;;;;;5031796;28;20168;-84
2021/04/01 08:45:01;;;;;;;24.85;20.60;;;;;;;;;;5052075;28;20179;-83
2021/04/01 08:47:59;;;;;;;24.08;20.05;;;;;;;;;;5052599;28;20178;-83
2021/04/01 08:50:36;;;;;;;25.13;20.73;;;;;;;;;;5017412;28;20215;-84
2021/04/01 08:53:05;;;;;;;25.05;20.63;;;;;;;;;;5043019;28;20243;-82
2021/04/01 08:55:37;;;;;;;24.05;21.25;;;;;;;;;;5045569;28;20191;-83
2021/04/01 08:58:06;;;;;;;25.13;21.88;;;;;;;;;;5045859;28;20239;-82
2021/04/01 09:00:32;;;;;;;24.77;21.27;;;;;;;;;;5056706;28;20198;-83
2021/04/01 09:02:58;;;;;;;26.98;22.13;;;;;;;;;;5057700;28;20164;-83
2021/04/01 09:05:24;;;;;;;25.40;21.80;;;;;;;;;;5062782;28;20172;-83
2021/04/01 09:07:52;;;;;;;24.13;21.05;;;;;;;;;;5061130;28;20231;-83
2021/04/01 09:10:29;;;;;;;25.23;21.20;;;;;;;;;;5048376;28;20295;-81
2021/04/01 09:15:53;;;;;;;26.85;22.05;;;;;;;;;;5027541;28;20196;-82
2021/04/01 09:18:27;;;;;;;25.00;21.35;;;;;;;;;;5037257;28;20375;-82
2021/04/01 09:20:54;;;;;;;26.08;20.70;;;;;;;;;;5044953;28;20171;-82
2021/04/01 09:23:22;;;;;;;22.90;18.77;;;;;;;;;;5048778;28;20688;-81
2021/04/01 09:25:51;;;;;;;25.15;19.35;;;;;;;;;;5046477;28;20179;-82
2021/04/01 09:28:17;;;;;;;23.55;18.23;;;;;;;;;;5042665;28;20184;-81
2021/04/01 09:30:43;;;;;;;25.27;18.92;;;;;;;;;;5037088;28;20200;-81
2021/04/01 09:33:10;;;;;;;25.45;19.17;;;;;;;;;;5037081;28;20164;-82
2021/04/01 09:35:37;;;;;;;26.83;19.10;;;;;;;;;;5075374;28;20175;-81
2021/04/01 09:38:07;;;;;;;24.30;19.05;;;;;;;;;;5076704;28;20163;-81
2021/04/01 09:40:34;;;;;;;25.33;18.17;;;;;;;;;;5077015;28;20159;-81
2021/04/01 09:43:08;;;;;;;24.48;18.10;;;;;;;;;;5077492;28;20179;-81
2021/04/01 09:45:34;;;;;;;29.42;18.67;;;;;;;;;;5077335;28;20171;-81
2021/04/01 09:48:00;;;;;;;24.40;17.95;;;;;;;;;;5069681;28;20190;-81
2021/04/01 09:50:30;;;;;;;27.77;18.83;;;;;;;;;;5054824;28;20203;-81
2021/04/01 09:52:58;;;;;;;26.33;17.65;;;;;;;;;;5056458;28;20168;-81
2021/04/01 09:55:23;;;;;;;26.58;17.88;;;;;;;;;;5054516;28;20178;-81
2021/04/01 09:57:52;;;;;;;27.48;17.67;;;;;;;;;;5055942;28;20557;-81
2021/04/01 10:02:58;;;;;;;26.83;18.73;;;;;;;;;;5055852;28;20322;-81
2021/04/01 10:05:24;;;;;;;26.60;18.38;;;;;;;;;;5037121;28;20164;-81
2021/04/01 10:07:56;;;;;;;29.05;19.38;;;;;;;;;;5049681;28;20270;-80
2021/04/01 10:10:41;;;;;;;26.38;18.58;;;;;;;;;;5056620;28;20672;-80
2021/04/01 10:13:16;;;;;;;21.58;16.35;;;;;;;;;;5054713;28;20679;-80
2021/04/01 10:15:42;;;;;;;22.58;16.10;;;;;;;;;;5056299;28;20606;-81
2021/04/01 10:18:08;;;;;;;21.92;16.48;;;;;;;;;;5056828;28;20187;-81
2021/04/01 10:20:34;;;;;;;24.98;16.40;;;;;;;;;;5056303;28;20168;-81
2021/04/01 10:23:07;;;;;;;18.77;15.13;;;;;;;;;;5055778;28;20519;-80
2021/04/01 10:25:45;;;;;;;22.80;17.48;;;;;;;;;;5056196;28;20199;-80
2021/04/01 10:28:26;;;;;;;20.52;15.35;;;;;;;;;;5055925;28;20662;-80
2021/04/01 10:30:54;;;;;;;21.33;15.57;;;;;;;;;;5056050;28;20183;-81
2021/04/01 10:33:23;;;;;;;22.02;15.88;;;;;;;;;;5055405;28;20540;-80
2021/04/01 10:35:48;;;;;;;26.08;16.05;;;;;;;;;;5055569;28;20254;-81
2021/04/01 10:38:15;;;;;;;22.35;16.02;;;;;;;;;;5054633;28;20261;-81
2021/04/01 10:40:41;;;;;;;23.05;16.48;;;;;;;;;;5055745;28;20172;-81
2021/04/01 10:43:10;;;;;;;21.70;14.43;;;;;;;;;;5074371;28;20168;-80
2021/04/01 10:45:36;;;;;;;25.05;14.50;;;;;;;;;;5080543;28;20164;-80
2021/04/01 10:48:22;;;;;;;22.63;15.05;;;;;;;;;;5068293;28;20585;-81
2021/04/01 10:50:49;;;;;;;21.02;15.63;;;;;;;;;;5054261;28;20596;-81
2021/04/01 10:53:19;;;;;;;22.25;15.63;;;;;;;;;;5046049;28;20619;-81
2021/04/01 10:55:44;;;;;;;23.17;15.30;;;;;;;;;;5043561;28;20214;-82
2021/04/01 10:58:10;;;;;;;22.58;16.30;;;;;;;;;;5043481;28;20255;-81
2021/04/01 11:00:37;;;;;;;21.25;15.93;;;;;;;;;;5044205;28;20242;-82
2021/04/01 11:03:04;;;;;;;26.58;17.15;;;;;;;;;;5045842;28;20175;-81
2021/04/01 11:05:31;;;;;;;23.90;16.77;;;;;;;;;;5044221;28;20273;-82
2021/04/01 11:08:07;;;;;;;22.38;16.80;;;;;;;;;;5038945;28;20282;-82
2021/04/01 11:10:34;;;;;;;19.90;15.52;;;;;;;;;;5035105;28;20207;-81
2021/04/01 11:13:02;;;;;;;20.13;15.35;;;;;;;;;;5036329;28;20191;-81
2021/04/01 11:15:31;;;;;;;21.52;16.30;;;;;;;;;;5054697;28;20710;-81
2021/04/01 11:18:01;;;;;;;27.65;16.65;;;;;;;;;;5052871;28;20176;-81
2021/04/01 11:20:29;;;;;;;25.05;17.00;;;;;;;;;;5053170;28;20210;-81
2021/04/01 11:23:09;;;;;;;22.98;16.42;;;;;;;;;;5053160;28;20179;-82
2021/04/01 11:25:36;;;;;;;19.92;16.27;;;;;;;;;;5052778;28;20179;-81
2021/04/01 11:28:02;;;;;;;22.25;16.88;;;;;;;;;;5053110;28;20180;-81
2021/04/01 11:30:42;;;;;;;21.05;15.00;;;;;;;;;;5052588;28;20191;-81
2021/04/01 11:33:08;;;;;;;23.88;16.50;;;;;;;;;;5042385;28;20188;-82
2021/04/01 11:35:34;;;;;;;24.70;17.65;;;;;;;;;;5052599;28;20178;-81
2021/04/01 11:38:00;;;;;;;25.80;17.52;;;;;;;;;;5052991;28;20186;-81
2021/04/01 11:40:26;;;;;;;23.13;17.33;;;;;;;;;;5052541;28;20195;-81
2021/04/01 11:42:52;;;;;;;23.35;16.73;;;;;;;;;;5052726;28;20175;-81
2021/04/01 11:45:28;;;;;;;19.10;15.73;;;;;;;;;;5052366;28;20554;-81
2021/04/01 11:47:54;;;;;;;19.38;14.82;;;;;;;;;;5052645;28;20246;-80
2021/04/01 11:50:19;;;;;;;19.73;15.65;;;;;;;;;;5052094;28;20631;-80
2021/04/01 11:52:44;;;;;;;21.00;15.73;;;;;;;;;;5052510;28;20222;-80
2021/04/01 11:55:10;;;;;;;19.00;14.43;;;;;;;;;;5052611;28;20164;-80
2021/04/01 11:57:36;;;;;;;14.98;13.38;;;;;;;;;;5051772;28;20194;-80
2021/04/01 12:00:31;;;;;;;20.38;14.20;;;;;;;;;;5050892;28;20245;-80
2021/04/01 12:02:57;;;;;;;18.38;12.93;;;;;;;;;;5044466;28;20184;-80
2021/04/01 12:05:24;;;;;;;16.60;12.95;;;;;;;;;;5042519;28;20283;-80
2021/04/01 12:07:49;;;;;;;16.90;13.35;;;;;;;;;;5057587;28;20231;-80
2021/04/01 12:10:15;;;;;;;17.38;12.65;;;;;;;;;;5071743;28;20195;-80
2021/04/01 12:12:41;;;;;;;17.02;13.52;;;;;;;;;;5072103;28;20175;-80
2021/04/01 12:15:07;;;;;;;16.60;12.80;;;;;;;;;;5069801;28;20523;-80
2021/04/01 12:17:37;;;;;;;13.27;11.88;;;;;;;;;;5052089;28;20171;-80
2021/04/01 12:20:04;;;;;;;15.20;12.52;;;;;;;;;;5051694;28;20168;-79
2021/04/01 12:22:33;;;;;;;17.15;12.80;;;;;;;;;;5051692;28;20662;-80
2021/04/01 12:24:59;;;;;;;16.05;12.85;;;;;;;;;;5050748;28;20175;-80
2021/04/01 12:27:29;;;;;;;15.85;12.98;;;;;;;;;;5051900;28;20172;-80
2021/04/01 12:29:54;;;;;;;21.55;13.77;;;;;;;;;;5051767;28;20182;-80
2021/04/01 12:32:30;;;;;;;19.58;13.85;;;;;;;;;;5055966;28;20175;-81
2021/04/01 12:35:06;;;;;;;18.02;13.02;;;;;;;;;;5071906;28;20158;-80
2021/04/01 12:37:31;;;;;;;20.80;13.88;;;;;;;;;;5071761;28;20181;-80
2021/04/01 12:40:07;;;;;;;17.92;14.07;;;;;;;;;;5071389;28;20830;-80
2021/04/01 12:42:33;;;;;;;18.48;13.60;;;;;;;;;;5071554;28;20159;-80
2021/04/01 12:44:58;;;;;;;17.33;13.65;;;;;;;;;;5071470;28;20246;-81
2021/04/01 12:47:24;;;;;;;17.92;14.55;;;;;;;;;;5071500;28;20171;-80
2021/04/01 12:49:50;;;;;;;19.88;14.75;;;;;;;;;;5071738;28;20490;-80
2021/04/01 12:52:15;;;;;;;17.52;13.32;;;;;;;;;;5071664;28;20172;-80
2021/04/01 12:54:45;;;;;;;16.75;13.35;;;;;;;;;;5071662;28;20175;-80
2021/04/01 12:57:16;;;;;;;17.95;13.77;;;;;;;;;;5071656;28;20163;-80
2021/04/01 12:59:47;;;;;;;21.77;14.80;;;;;;;;;;5071270;28;20197;-80
2021/04/01 13:04:41;;;;;;;23.85;16.23;;;;;;;;;;5071496;28;20209;-80
2021/04/01 13:12:16;;;;;;;18.63;15.00;;;;;;;;;;5051464;28;20188;-80
2021/04/01 13:14:42;;;;;;;17.45;14.48;;;;;;;;;;5051305;28;20155;-80
2021/04/01 13:17:08;;;;;;;17.15;13.65;;;;;;;;;;5051338;28;20263;-80
2021/04/01 13:19:33;;;;;;;16.50;12.98;;;;;;;;;;5051260;28;20176;-81
2021/04/01 13:26:52;;;;;;;23.15;15.82;;;;;;;;;;5051132;28;20229;-81
2021/04/01 13:29:22;;;;;;;20.10;16.90;;;;;;;;;;5051404;28;20174;-81
2021/04/01 13:31:54;;;;;;;23.85;16.33;;;;;;;;;;5051021;28;20670;-81
2021/04/01 13:39:29;;;;;;;17.83;14.30;;;;;;;;;;5055140;28;20236;-82
2021/04/01 13:44:38;;;;;;;20.98;15.18;;;;;;;;;;5055075;28;20250;-81
2021/04/01 13:47:03;;;;;;;20.20;15.15;;;;;;;;;;5054777;28;20191;-81
2021/04/01 13:49:30;;;;;;;20.77;14.90;;;;;;;;;;5055007;28;20211;-81
2021/04/01 13:52:03;;;;;;;17.92;13.68;;;;;;;;;;5054798;28;20200;-81
2021/04/01 13:57:33;;;;;;;17.92;13.30;;;;;;;;;;5054246;28;20255;-81
2021/04/01 14:10:59;;;;;;;13.02;10.18;;;;;;;;;;5074113;28;20201;-81
2021/04/01 14:13:27;;;;;;;12.82;9.95;;;;;;;;;;5074218;28;20175;-81
2021/04/01 14:15:52;;;;;;;15.93;10.70;;;;;;;;;;5074258;28;20188;-81
2021/04/01 14:18:18;;;;;;;14.30;11.05;;;;;;;;;;5074231;28;20202;-82
2021/04/01 14:20:43;;;;;;;13.43;9.77;;;;;;;;;;5074356;28;20647;-81
2021/04/01 14:23:14;;;;;;;12.55;9.10;;;;;;;;;;5074417;28;20646;-81
2021/04/01 14:25:43;;;;;;;11.75;8.50;;;;;;;;;;5074286;28;20167;-81
2021/04/01 14:28:09;;;;;;;13.10;10.88;;;;;;;;;;5073833;28;20175;-83
2021/04/01 14:30:36;;;;;;;18.70;11.90;;;;;;;;;;5074193;28;20201;-82
2021/04/01 14:33:02;;;;;;;14.60;11.45;;;;;;;;;;5072788;28;20537;-83
2021/04/01 14:35:31;;;;;;;15.30;10.98;;;;;;;;;;5074033;28;20618;-82
2021/04/01 14:38:00;;;;;;;14.95;10.98;;;;;;;;;;5070216;28;20267;-82
2021/04/01 14:40:33;;;;;;;17.92;11.77;;;;;;;;;;5044200;28;20637;-82
2021/04/01 14:43:02;;;;;;;17.38;12.65;;;;;;;;;;5034546;28;20184;-82
2021/04/01 14:45:28;;;;;;;16.10;13.07;;;;;;;;;;5035922;28;20164;-81
2021/04/01 14:47:54;;;;;;;16.00;12.27;;;;;;;;;;5041301;28;20171;-82
2021/04/01 14:50:19;;;;;;;15.15;10.95;;;;;;;;;;5036005;28;20556;-82
2021/04/01 14:52:44;;;;;;;15.57;12.05;;;;;;;;;;5039515;28;20534;-82
2021/04/01 14:55:11;;;;;;;13.82;10.75;;;;;;;;;;5054256;28;20187;-82
2021/04/01 14:57:42;;;;;;;14.07;10.57;;;;;;;;;;5055128;28;20176;-81
2021/04/01 15:00:10;;;;;;;12.73;9.45;;;;;;;;;;5055156;28;20248;-81
2021/04/01 15:02:35;;;;;;;12.18;8.98;;;;;;;;;;5055322;28;20164;-81
2021/04/01 15:05:01;;;;;;;14.82;8.93;;;;;;;;;;5053813;28;20183;-81
2021/04/01 15:07:27;;;;;;;9.48;8.35;;;;;;;;;;5053288;28;20314;-81
2021/04/01 15:09:52;;;;;;;9.48;7.97;;;;;;;;;;5054962;28;20254;-81
2021/04/01 15:12:18;;;;;;;8.52;7.45;;;;;;;;;;5055155;28;20180;-81
2021/04/01 15:14:44;;;;;;;9.75;8.02;;;;;;;;;;5054972;28;20168;-81
2021/04/01 15:17:09;;;;;;;9.38;7.18;;;;;;;;;;5054628;28;20215;-81
2021/04/01 15:19:35;;;;;;;8.43;7.53;;;;;;;;;;5051114;28;20183;-81
2021/04/01 15:22:00;;;;;;;9.15;7.35;;;;;;;;;;5054182;28;20538;-81
2021/04/01 15:24:25;;;;;;;9.45;7.43;;;;;;;;;;5054876;28;20179;-81
2021/04/01 15:26:51;;;;;;;10.77;7.65;;;;;;;;;;5054951;28;20203;-81
2021/04/01 15:29:16;;;;;;;9.27;8.03;;;;;;;;;;5055069;28;20258;-81
2021/04/01 15:31:43;;;;;;;10.23;8.17;;;;;;;;;;5054761;28;20202;-80
2021/04/01 15:34:09;;;;;;;9.63;8.47;;;;;;;;;;5054428;28;20183;-80
2021/04/01 15:36:34;;;;;;;12.73;9.43;;;;;;;;;;5054915;28;20187;-81
2021/04/01 15:39:00;;;;;;;12.27;9.57;;;;;;;;;;5054422;28;20263;-81
2021/04/01 15:41:25;;;;;;;13.77;10.83;;;;;;;;;;5054720;28;20221;-81
2021/04/01 15:43:53;;;;;;;15.23;11.33;;;;;;;;;;5054209;28;20176;-81
2021/04/01 15:46:18;;;;;;;20.80;16.57;;;;;;;;;;5054468;28;20195;-81
2021/04/01 15:48:43;;;;;;;15.40;10.93;;;;;;;;;;5054303;28;20610;-81
2021/04/01 15:51:09;;;;;;;12.40;10.00;;;;;;;;;;5054342;28;20648;-82
2021/04/01 15:53:34;;;;;;;16.93;12.13;;;;;;;;;;5053006;28;20483;-81
2021/04/01 15:56:00;;;;;;;14.50;10.50;;;;;;;;;;5049415;28;20223;-82
2021/04/01 15:58:27;;;;;;;15.03;11.67;;;;;;;;;;5044576;28;20183;-82
2021/04/01 16:00:52;;;;;;;19.37;12.27;;;;;;;;;;5044792;28;20235;-82
2021/04/01 16:03:18;;;;;;;19.80;14.67;;;;;;;;;;5046893;28;20188;-82
2021/04/01 16:05:43;;;;;;;21.87;13.50;;;;;;;;;;5041325;28;20176;-81
2021/04/01 16:08:08;;;;;;;16.27;12.47;;;;;;;;;;5046878;28;20662;-82
2021/04/01 16:10:34;;;;;;;19.67;13.57;;;;;;;;;;5035043;28;20196;-82
2021/04/01 16:13:07;;;;;;;15.63;12.70;;;;;;;;;;5049833;28;20180;-82
2021/04/01 16:15:35;;;;;;;22.40;15.07;;;;;;;;;;5052370;28;20156;-82
2021/04/01 16:18:02;;;;;;;32.57;19.83;;;;;;;;;;5053316;28;20179;-81
2021/04/01 16:20:27;;;;;;;27.40;20.43;;;;;;;;;;5053049;28;20233;-82
2021/04/01 16:22:52;;;;;;;30.23;21.17;;;;;;;;;;5046600;28;20172;-82
2021/04/01 16:25:18;;;;;;;34.77;24.57;;;;;;;;;;5053178;28;20615;-82
2021/04/01 16:27:44;;;;;;;36.70;23.17;;;;;;;;;;5053516;28;20168;-82
2021/04/01 16:30:09;;;;;;;33.40;22.07;;;;;;;;;;5052782;28;20238;-83
2021/04/01 16:32:35;;;;;;;32.30;22.13;;;;;;;;;;5051919;28;20703;-82
2021/04/01 16:35:01;;;;;;;26.40;19.50;;;;;;;;;;5052519;28;20178;-82
2021/04/01 16:37:30;;;;;;;28.93;19.47;;;;;;;;;;5051162;28;20176;-82
2021/04/01 16:39:58;;;;;;;29.90;21.37;;;;;;;;;;5050191;28;20167;-82